Terminal Aerodrome Forecast
Issued by NWS Missoula, MT

Home | Current Version | Previous Version | Text Only | Print | Product List | Glossary On
Versions: 1 2 3 4 5 6 7 8 9 10 11 12 13 14 15 16 17 18
000
FTUS45 KMSO 302324
TAFMSO
TAF
KMSO 302324Z 3100/3124 VRB03KT P6SM BKN150
     FM311200 15003KT 4SM BR SCT120
     FM311600 VRB03KT P6SM SCT150=

USA.gov is the U.S. government's official web portal to all federal, state and local government web resources and services.